DAAV

Jijel Ferhat Abbas Airport

Jijel, Algeria
METAR DAAV 190800Z 10002KT CAVOK 27/20 Q1018
Observed Flight Rules
Sep-19 @ 08:00 UTC (an hour ago) Visual Flight Rules
Wind Visibility Clouds
100° at 2 knots 10,000+ meters
  • Clear skies
Temperatures Readings
Current 27°C / 81°F
Dewpoint 20°C / 68°F
Humidity 66%
Altimeter 30.06" Hg
Pressure 1018 hPa
Elevation 11
METAR DAAV 190800Z 10002KT CAVOK 27/20 Q1018
Observed Flight Rules
Sep-19 @ 08:00 UTC
(an hour ago)
VFR
Wind Visibility
100° at 2 knots 10,000+ meters
Clouds
  • Clear skies
Temperature Dewpoint
27°C / 81°F 20°C / 68°F
Humidity Altimeter Pressure
66% 30.06" Hg 1018 hPa